sensor_id;sensor_type;location;lat;lon;timestamp;temperature;humidity
19755;DHT22;10036;47.812;9.274;2024-02-21T00:01:24;3.40;99.90
19755;DHT22;10036;47.812;9.274;2024-02-21T00:03:51;3.40;99.90
19755;DHT22;10036;47.812;9.274;2024-02-21T00:06:19;3.40;99.90
19755;DHT22;10036;47.812;9.274;2024-02-21T00:08:46;3.30;99.90
19755;DHT22;10036;47.812;9.274;2024-02-21T00:11:13;3.40;99.90
19755;DHT22;10036;47.812;9.274;2024-02-21T00:13:40;3.50;99.90
19755;DHT22;10036;47.812;9.274;2024-02-21T00:16:07;3.50;99.90
19755;DHT22;10036;47.812;9.274;2024-02-21T00:18:34;3.50;99.90
19755;DHT22;10036;47.812;9.274;2024-02-21T00:21:00;3.50;99.90
19755;DHT22;10036;47.812;9.274;2024-02-21T00:23:30;3.60;99.90
19755;DHT22;10036;47.812;9.274;2024-02-21T00:25:56;3.60;99.90
19755;DHT22;10036;47.812;9.274;2024-02-21T00:28:23;3.60;99.90
19755;DHT22;10036;47.812;9.274;2024-02-21T00:30:50;3.60;99.90
19755;DHT22;10036;47.812;9.274;2024-02-21T00:33:18;3.60;99.90
19755;DHT22;10036;47.812;9.274;2024-02-21T00:35:45;3.60;99.90
19755;DHT22;10036;47.812;9.274;2024-02-21T00:38:12;3.70;99.90
19755;DHT22;10036;47.812;9.274;2024-02-21T00:40:40;3.70;99.90
19755;DHT22;10036;47.812;9.274;2024-02-21T00:43:07;3.70;99.90
19755;DHT22;10036;47.812;9.274;2024-02-21T00:45:34;3.60;99.90
19755;DHT22;10036;47.812;9.274;2024-02-21T00:48:01;3.70;99.90
19755;DHT22;10036;47.812;9.274;2024-02-21T00:50:29;3.70;99.90
19755;DHT22;10036;47.812;9.274;2024-02-21T00:52:56;3.60;99.90
19755;DHT22;10036;47.812;9.274;2024-02-21T00:55:23;3.70;99.90
19755;DHT22;10036;47.812;9.274;2024-02-21T00:57:51;3.60;99.90
19755;DHT22;10036;47.812;9.274;2024-02-21T01:00:19;3.50;99.90
19755;DHT22;10036;47.812;9.274;2024-02-21T01:02:46;3.40;99.90
19755;DHT22;10036;47.812;9.274;2024-02-21T01:05:12;3.40;99.90
19755;DHT22;10036;47.812;9.274;2024-02-21T01:07:39;3.40;99.90
19755;DHT22;10036;47.812;9.274;2024-02-21T01:10:07;3.50;99.90
19755;DHT22;10036;47.812;9.274;2024-02-21T01:12:34;3.30;99.90
19755;DHT22;10036;47.812;9.274;2024-02-21T01:15:03;3.40;99.90
19755;DHT22;10036;47.812;9.274;2024-02-21T01:17:30;3.50;99.90
19755;DHT22;10036;47.812;9.274;2024-02-21T01:19:57;3.40;99.90
19755;DHT22;10036;47.812;9.274;2024-02-21T01:22:24;3.40;99.90
19755;DHT22;10036;47.812;9.274;2024-02-21T01:24:51;3.40;99.90
19755;DHT22;10036;47.812;9.274;2024-02-21T01:27:18;3.20;99.90
19755;DHT22;10036;47.812;9.274;2024-02-21T01:29:45;3.40;99.90
19755;DHT22;10036;47.812;9.274;2024-02-21T01:32:16;3.60;99.90
19755;DHT22;10036;47.812;9.274;2024-02-21T01:34:43;3.40;99.90
19755;DHT22;10036;47.812;9.274;2024-02-21T01:37:10;3.40;99.90
19755;DHT22;10036;47.812;9.274;2024-02-21T01:39:37;3.30;99.90
19755;DHT22;10036;47.812;9.274;2024-02-21T01:42:07;3.20;99.90
19755;DHT22;10036;47.812;9.274;2024-02-21T01:44:34;3.20;99.90
19755;DHT22;10036;47.812;9.274;2024-02-21T01:47:02;3.10;99.90
19755;DHT22;10036;47.812;9.274;2024-02-21T01:49:30;3.00;99.90
19755;DHT22;10036;47.812;9.274;2024-02-21T01:51:57;2.90;99.90
19755;DHT22;10036;47.812;9.274;2024-02-21T01:54:25;3.00;99.90
19755;DHT22;10036;47.812;9.274;2024-02-21T01:56:54;3.10;99.90
19755;DHT22;10036;47.812;9.274;2024-02-21T01:59:21;3.30;99.90
19755;DHT22;10036;47.812;9.274;2024-02-21T02:01:50;3.30;99.90
19755;DHT22;10036;47.812;9.274;2024-02-21T02:04:17;3.40;99.90
19755;DHT22;10036;47.812;9.274;2024-02-21T02:06:46;3.50;99.90
19755;DHT22;10036;47.812;9.274;2024-02-21T02:09:13;3.40;99.90
19755;DHT22;10036;47.812;9.274;2024-02-21T02:11:40;3.40;99.90
19755;DHT22;10036;47.812;9.274;2024-02-21T02:14:07;3.30;99.90
19755;DHT22;10036;47.812;9.274;2024-02-21T02:16:33;3.40;99.90
19755;DHT22;10036;47.812;9.274;2024-02-21T02:19:00;3.40;99.90
19755;DHT22;10036;47.812;9.274;2024-02-21T02:21:29;3.30;99.90
19755;DHT22;10036;47.812;9.274;2024-02-21T02:23:59;3.20;99.90
19755;DHT22;10036;47.812;9.274;2024-02-21T02:26:26;3.30;99.90
19755;DHT22;10036;47.812;9.274;2024-02-21T02:28:53;3.20;99.90
19755;DHT22;10036;47.812;9.274;2024-02-21T02:31:20;3.30;99.90
19755;DHT22;10036;47.812;9.274;2024-02-21T02:33:47;3.30;99.90
19755;DHT22;10036;47.812;9.274;2024-02-21T02:36:14;3.40;99.90
19755;DHT22;10036;47.812;9.274;2024-02-21T02:38:41;3.40;99.90
19755;DHT22;10036;47.812;9.274;2024-02-21T02:41:09;3.30;99.90
19755;DHT22;10036;47.812;9.274;2024-02-21T02:43:36;3.10;99.90
19755;DHT22;10036;47.812;9.274;2024-02-21T02:46:03;3.10;99.90
19755;DHT22;10036;47.812;9.274;2024-02-21T02:48:30;3.00;99.90
19755;DHT22;10036;47.812;9.274;2024-02-21T02:50:57;2.90;99.90
19755;DHT22;10036;47.812;9.274;2024-02-21T02:53:24;3.00;99.90
19755;DHT22;10036;47.812;9.274;2024-02-21T02:55:50;3.00;99.90
19755;DHT22;10036;47.812;9.274;2024-02-21T02:58:19;3.10;99.90
19755;DHT22;10036;47.812;9.274;2024-02-21T03:00:45;3.20;99.90
19755;DHT22;10036;47.812;9.274;2024-02-21T03:03:12;3.30;99.90
19755;DHT22;10036;47.812;9.274;2024-02-21T03:05:39;3.30;99.90
19755;DHT22;10036;47.812;9.274;2024-02-21T03:08:06;3.30;99.90
19755;DHT22;10036;47.812;9.274;2024-02-21T03:10:34;3.30;99.90
19755;DHT22;10036;47.812;9.274;2024-02-21T03:13:01;3.20;99.90
19755;DHT22;10036;47.812;9.274;2024-02-21T03:15:29;3.10;99.90
19755;DHT22;10036;47.812;9.274;2024-02-21T03:17:56;3.00;99.90
19755;DHT22;10036;47.812;9.274;2024-02-21T03:20:23;3.00;99.90
19755;DHT22;10036;47.812;9.274;2024-02-21T03:22:49;3.10;99.90
19755;DHT22;10036;47.812;9.274;2024-02-21T03:25:16;3.10;99.90
19755;DHT22;10036;47.812;9.274;2024-02-21T03:27:45;3.20;99.90
19755;DHT22;10036;47.812;9.274;2024-02-21T03:30:13;3.30;99.90
19755;DHT22;10036;47.812;9.274;2024-02-21T03:32:41;3.40;99.90
19755;DHT22;10036;47.812;9.274;2024-02-21T03:35:08;3.40;99.90
19755;DHT22;10036;47.812;9.274;2024-02-21T03:37:36;3.40;99.90
19755;DHT22;10036;47.812;9.274;2024-02-21T03:40:07;3.40;99.90
19755;DHT22;10036;47.812;9.274;2024-02-21T03:42:34;3.40;99.90
19755;DHT22;10036;47.812;9.274;2024-02-21T03:45:01;3.50;99.90
19755;DHT22;10036;47.812;9.274;2024-02-21T03:47:29;3.60;99.90
19755;DHT22;10036;47.812;9.274;2024-02-21T03:49:57;3.50;99.90
19755;DHT22;10036;47.812;9.274;2024-02-21T03:52:25;3.50;99.90
19755;DHT22;10036;47.812;9.274;2024-02-21T03:54:52;3.50;99.90
19755;DHT22;10036;47.812;9.274;2024-02-21T03:57:20;3.50;99.90
19755;DHT22;10036;47.812;9.274;2024-02-21T03:59:50;3.50;99.90
19755;DHT22;10036;47.812;9.274;2024-02-21T04:02:17;3.50;99.90
19755;DHT22;10036;47.812;9.274;2024-02-21T04:04:44;3.50;99.90
19755;DHT22;10036;47.812;9.274;2024-02-21T04:07:13;3.40;99.90
19755;DHT22;10036;47.812;9.274;2024-02-21T04:09:40;3.40;99.90
19755;DHT22;10036;47.812;9.274;2024-02-21T04:12:08;3.40;99.90
19755;DHT22;10036;47.812;9.274;2024-02-21T04:14:35;3.50;99.90
19755;DHT22;10036;47.812;9.274;2024-02-21T04:17:01;3.40;99.90
19755;DHT22;10036;47.812;9.274;2024-02-21T04:19:30;3.40;99.90
19755;DHT22;10036;47.812;9.274;2024-02-21T04:21:58;3.40;99.90
19755;DHT22;10036;47.812;9.274;2024-02-21T04:24:26;3.50;99.90
19755;DHT22;10036;47.812;9.274;2024-02-21T04:26:53;3.50;99.90
19755;DHT22;10036;47.812;9.274;2024-02-21T04:29:20;3.50;99.90
19755;DHT22;10036;47.812;9.274;2024-02-21T04:31:47;3.40;99.90
19755;DHT22;10036;47.812;9.274;2024-02-21T04:34:13;3.50;99.90
19755;DHT22;10036;47.812;9.274;2024-02-21T04:36:40;3.50;99.90
19755;DHT22;10036;47.812;9.274;2024-02-21T04:39:09;3.40;99.90
19755;DHT22;10036;47.812;9.274;2024-02-21T04:41:38;3.40;99.90
19755;DHT22;10036;47.812;9.274;2024-02-21T04:44:05;3.40;99.90
19755;DHT22;10036;47.812;9.274;2024-02-21T04:46:32;3.30;99.90
19755;DHT22;10036;47.812;9.274;2024-02-21T04:48:58;3.30;99.90
19755;DHT22;10036;47.812;9.274;2024-02-21T04:51:25;3.40;99.90
19755;DHT22;10036;47.812;9.274;2024-02-21T04:53:52;3.50;99.90
19755;DHT22;10036;47.812;9.274;2024-02-21T04:56:19;3.40;99.90
19755;DHT22;10036;47.812;9.274;2024-02-21T04:58:47;3.40;99.90
19755;DHT22;10036;47.812;9.274;2024-02-21T05:01:14;3.20;99.90
19755;DHT22;10036;47.812;9.274;2024-02-21T05:03:41;3.20;99.90
19755;DHT22;10036;47.812;9.274;2024-02-21T05:06:08;3.10;99.90
19755;DHT22;10036;47.812;9.274;2024-02-21T05:08:35;3.20;99.90
19755;DHT22;10036;47.812;9.274;2024-02-21T05:11:02;3.40;99.90
19755;DHT22;10036;47.812;9.274;2024-02-21T05:13:29;3.40;99.90
19755;DHT22;10036;47.812;9.274;2024-02-21T05:15:57;3.50;99.90
19755;DHT22;10036;47.812;9.274;2024-02-21T05:18:26;3.60;99.90
19755;DHT22;10036;47.812;9.274;2024-02-21T05:20:53;3.50;99.90
19755;DHT22;10036;47.812;9.274;2024-02-21T05:23:20;3.40;99.90
19755;DHT22;10036;47.812;9.274;2024-02-21T05:25:47;3.40;99.90
19755;DHT22;10036;47.812;9.274;2024-02-21T05:28:14;3.30;99.90
19755;DHT22;10036;47.812;9.274;2024-02-21T05:30:41;3.20;99.90
19755;DHT22;10036;47.812;9.274;2024-02-21T05:33:10;3.00;99.90
19755;DHT22;10036;47.812;9.274;2024-02-21T05:35:38;3.10;99.90
19755;DHT22;10036;47.812;9.274;2024-02-21T05:38:05;3.10;99.90
19755;DHT22;10036;47.812;9.274;2024-02-21T05:40:36;3.10;99.90
19755;DHT22;10036;47.812;9.274;2024-02-21T05:43:03;3.10;99.90
19755;DHT22;10036;47.812;9.274;2024-02-21T05:45:30;3.10;99.90
19755;DHT22;10036;47.812;9.274;2024-02-21T05:47:57;3.10;99.90
19755;DHT22;10036;47.812;9.274;2024-02-21T05:50:26;3.10;99.90
19755;DHT22;10036;47.812;9.274;2024-02-21T05:52:54;3.10;99.90
19755;DHT22;10036;47.812;9.274;2024-02-21T05:55:22;3.10;99.90
19755;DHT22;10036;47.812;9.274;2024-02-21T05:57:49;3.10;99.90
19755;DHT22;10036;47.812;9.274;2024-02-21T06:00:16;3.20;99.90
19755;DHT22;10036;47.812;9.274;2024-02-21T06:02:43;3.20;99.90
19755;DHT22;10036;47.812;9.274;2024-02-21T06:05:10;3.30;99.90
19755;DHT22;10036;47.812;9.274;2024-02-21T06:07:38;3.30;99.90
19755;DHT22;10036;47.812;9.274;2024-02-21T06:10:07;3.20;99.90
19755;DHT22;10036;47.812;9.274;2024-02-21T06:12:34;3.20;99.90
19755;DHT22;10036;47.812;9.274;2024-02-21T06:15:01;3.10;99.90
19755;DHT22;10036;47.812;9.274;2024-02-21T06:17:28;3.20;99.90
19755;DHT22;10036;47.812;9.274;2024-02-21T06:19:55;3.00;99.90
19755;DHT22;10036;47.812;9.274;2024-02-21T06:22:21;3.00;99.90
19755;DHT22;10036;47.812;9.274;2024-02-21T06:24:50;3.10;99.90
19755;DHT22;10036;47.812;9.274;2024-02-21T06:27:17;3.30;99.90
19755;DHT22;10036;47.812;9.274;2024-02-21T06:29:44;3.30;99.90
19755;DHT22;10036;47.812;9.274;2024-02-21T06:32:11;3.30;99.90
19755;DHT22;10036;47.812;9.274;2024-02-21T06:34:38;3.40;99.90
19755;DHT22;10036;47.812;9.274;2024-02-21T06:37:04;3.40;99.90
19755;DHT22;10036;47.812;9.274;2024-02-21T06:39:31;3.20;99.90
19755;DHT22;10036;47.812;9.274;2024-02-21T06:42:00;3.20;99.90
19755;DHT22;10036;47.812;9.274;2024-02-21T06:44:28;3.00;99.90
19755;DHT22;10036;47.812;9.274;2024-02-21T06:46:55;3.00;99.90
19755;DHT22;10036;47.812;9.274;2024-02-21T06:49:22;3.10;99.90
19755;DHT22;10036;47.812;9.274;2024-02-21T06:51:48;3.20;99.90
19755;DHT22;10036;47.812;9.274;2024-02-21T06:54:15;3.30;99.90
19755;DHT22;10036;47.812;9.274;2024-02-21T06:56:42;3.30;99.90
19755;DHT22;10036;47.812;9.274;2024-02-21T06:59:10;3.40;99.90
19755;DHT22;10036;47.812;9.274;2024-02-21T07:01:45;3.40;99.90
19755;DHT22;10036;47.812;9.274;2024-02-21T07:04:12;3.40;99.90
19755;DHT22;10036;47.812;9.274;2024-02-21T07:06:38;3.50;99.90
19755;DHT22;10036;47.812;9.274;2024-02-21T07:09:05;3.50;99.90
19755;DHT22;10036;47.812;9.274;2024-02-21T07:11:32;3.60;99.90
19755;DHT22;10036;47.812;9.274;2024-02-21T07:13:59;3.60;99.90
19755;DHT22;10036;47.812;9.274;2024-02-21T07:16:27;3.70;99.90
19755;DHT22;10036;47.812;9.274;2024-02-21T07:18:55;3.70;99.90
19755;DHT22;10036;47.812;9.274;2024-02-21T07:21:22;3.70;99.90
19755;DHT22;10036;47.812;9.274;2024-02-21T07:23:49;3.80;99.90
19755;DHT22;10036;47.812;9.274;2024-02-21T07:26:16;3.80;99.90
19755;DHT22;10036;47.812;9.274;2024-02-21T07:28:43;3.70;99.90
19755;DHT22;10036;47.812;9.274;2024-02-21T07:31:10;3.70;99.90
19755;DHT22;10036;47.812;9.274;2024-02-21T07:33:38;3.70;99.90
19755;DHT22;10036;47.812;9.274;2024-02-21T07:36:06;3.60;99.90
19755;DHT22;10036;47.812;9.274;2024-02-21T07:38:33;3.50;99.90
19755;DHT22;10036;47.812;9.274;2024-02-21T07:41:00;3.40;99.90
19755;DHT22;10036;47.812;9.274;2024-02-21T07:43:28;3.50;99.90
19755;DHT22;10036;47.812;9.274;2024-02-21T07:45:55;3.60;99.90
19755;DHT22;10036;47.812;9.274;2024-02-21T07:48:22;3.70;99.90
19755;DHT22;10036;47.812;9.274;2024-02-21T07:50:51;3.70;99.90
19755;DHT22;10036;47.812;9.274;2024-02-21T07:53:19;3.80;99.90
19755;DHT22;10036;47.812;9.274;2024-02-21T07:55:46;3.80;99.90
19755;DHT22;10036;47.812;9.274;2024-02-21T07:58:13;3.90;99.90
19755;DHT22;10036;47.812;9.274;2024-02-21T08:00:40;4.00;99.90
19755;DHT22;10036;47.812;9.274;2024-02-21T08:03:07;4.10;99.90
19755;DHT22;10036;47.812;9.274;2024-02-21T08:05:34;4.10;99.90
19755;DHT22;10036;47.812;9.274;2024-02-21T08:08:03;4.20;99.90
19755;DHT22;10036;47.812;9.274;2024-02-21T08:10:30;4.20;99.90
19755;DHT22;10036;47.812;9.274;2024-02-21T08:12:57;4.30;99.90
19755;DHT22;10036;47.812;9.274;2024-02-21T08:15:23;4.40;99.90
19755;DHT22;10036;47.812;9.274;2024-02-21T08:17:54;4.50;99.90
19755;DHT22;10036;47.812;9.274;2024-02-21T08:20:24;4.50;99.90
19755;DHT22;10036;47.812;9.274;2024-02-21T08:22:51;4.60;99.90
19755;DHT22;10036;47.812;9.274;2024-02-21T08:25:19;4.70;99.90
19755;DHT22;10036;47.812;9.274;2024-02-21T08:27:46;4.80;99.90
19755;DHT22;10036;47.812;9.274;2024-02-21T08:30:13;4.90;99.90
19755;DHT22;10036;47.812;9.274;2024-02-21T08:32:40;5.00;99.90
19755;DHT22;10036;47.812;9.274;2024-02-21T08:35:08;5.10;99.90
19755;DHT22;10036;47.812;9.274;2024-02-21T08:37:35;5.20;99.90
19755;DHT22;10036;47.812;9.274;2024-02-21T08:40:02;5.20;99.90
19755;DHT22;10036;47.812;9.274;2024-02-21T08:42:35;5.30;99.90
19755;DHT22;10036;47.812;9.274;2024-02-21T08:45:03;5.40;99.90
19755;DHT22;10036;47.812;9.274;2024-02-21T08:47:30;5.50;99.90
19755;DHT22;10036;47.812;9.274;2024-02-21T08:49:57;5.50;99.90
19755;DHT22;10036;47.812;9.274;2024-02-21T08:52:24;5.70;99.90
19755;DHT22;10036;47.812;9.274;2024-02-21T08:54:51;5.40;99.90
19755;DHT22;10036;47.812;9.274;2024-02-21T08:57:19;5.50;99.90
19755;DHT22;10036;47.812;9.274;2024-02-21T08:59:47;5.70;99.90
19755;DHT22;10036;47.812;9.274;2024-02-21T09:02:14;5.70;99.90
19755;DHT22;10036;47.812;9.274;2024-02-21T09:04:42;5.80;99.90
19755;DHT22;10036;47.812;9.274;2024-02-21T09:07:09;5.90;99.90
19755;DHT22;10036;47.812;9.274;2024-02-21T09:09:36;6.00;99.90
19755;DHT22;10036;47.812;9.274;2024-02-21T09:12:04;6.00;99.90
19755;DHT22;10036;47.812;9.274;2024-02-21T09:14:32;6.10;99.90
19755;DHT22;10036;47.812;9.274;2024-02-21T09:17:00;6.20;99.90
19755;DHT22;10036;47.812;9.274;2024-02-21T09:19:28;6.20;99.90
19755;DHT22;10036;47.812;9.274;2024-02-21T09:21:55;6.30;99.90
19755;DHT22;10036;47.812;9.274;2024-02-21T09:24:22;6.50;99.90
19755;DHT22;10036;47.812;9.274;2024-02-21T09:26:49;6.50;99.90
19755;DHT22;10036;47.812;9.274;2024-02-21T09:29:15;6.60;99.90
19755;DHT22;10036;47.812;9.274;2024-02-21T09:31:42;6.50;99.90
19755;DHT22;10036;47.812;9.274;2024-02-21T09:34:10;6.70;99.90
19755;DHT22;10036;47.812;9.274;2024-02-21T09:36:37;6.70;99.90
19755;DHT22;10036;47.812;9.274;2024-02-21T09:39:06;6.80;99.90
19755;DHT22;10036;47.812;9.274;2024-02-21T09:41:36;6.70;99.90
19755;DHT22;10036;47.812;9.274;2024-02-21T09:44:08;6.70;99.90
19755;DHT22;10036;47.812;9.274;2024-02-21T09:46:43;6.70;99.90
19755;DHT22;10036;47.812;9.274;2024-02-21T09:49:21;6.60;99.90
19755;DHT22;10036;47.812;9.274;2024-02-21T09:51:54;6.70;99.90
19755;DHT22;10036;47.812;9.274;2024-02-21T09:54:22;6.70;99.90
19755;DHT22;10036;47.812;9.274;2024-02-21T09:56:49;6.90;99.90
19755;DHT22;10036;47.812;9.274;2024-02-21T09:59:16;6.80;99.90
19755;DHT22;10036;47.812;9.274;2024-02-21T10:01:44;6.70;99.90
19755;DHT22;10036;47.812;9.274;2024-02-21T10:04:13;6.80;99.90
19755;DHT22;10036;47.812;9.274;2024-02-21T10:06:40;6.90;99.90
19755;DHT22;10036;47.812;9.274;2024-02-21T10:09:08;7.10;99.90
19755;DHT22;10036;47.812;9.274;2024-02-21T10:11:34;7.10;99.90
19755;DHT22;10036;47.812;9.274;2024-02-21T10:14:05;7.00;99.90
19755;DHT22;10036;47.812;9.274;2024-02-21T10:16:32;7.10;99.90
19755;DHT22;10036;47.812;9.274;2024-02-21T10:18:59;7.10;99.90
19755;DHT22;10036;47.812;9.274;2024-02-21T10:21:27;7.30;99.90
19755;DHT22;10036;47.812;9.274;2024-02-21T10:23:55;7.30;99.90
19755;DHT22;10036;47.812;9.274;2024-02-21T10:26:22;7.40;99.90
19755;DHT22;10036;47.812;9.274;2024-02-21T10:28:49;7.50;99.90
19755;DHT22;10036;47.812;9.274;2024-02-21T10:31:24;7.50;99.90
19755;DHT22;10036;47.812;9.274;2024-02-21T10:33:55;7.70;99.90
19755;DHT22;10036;47.812;9.274;2024-02-21T10:36:23;7.90;99.90
19755;DHT22;10036;47.812;9.274;2024-02-21T10:38:51;7.90;99.90
19755;DHT22;10036;47.812;9.274;2024-02-21T10:41:20;8.00;99.90
19755;DHT22;10036;47.812;9.274;2024-02-21T10:43:51;8.00;99.90
19755;DHT22;10036;47.812;9.274;2024-02-21T10:46:20;8.00;99.90
19755;DHT22;10036;47.812;9.274;2024-02-21T10:48:48;8.10;99.90
19755;DHT22;10036;47.812;9.274;2024-02-21T10:51:18;8.40;99.90
19755;DHT22;10036;47.812;9.274;2024-02-21T10:53:53;8.40;99.90
19755;DHT22;10036;47.812;9.274;2024-02-21T10:56:28;8.50;99.90
19755;DHT22;10036;47.812;9.274;2024-02-21T10:58:57;8.70;99.90
19755;DHT22;10036;47.812;9.274;2024-02-21T11:01:26;8.60;99.90
19755;DHT22;10036;47.812;9.274;2024-02-21T11:03:56;8.70;99.90
19755;DHT22;10036;47.812;9.274;2024-02-21T11:06:25;8.70;99.90
19755;DHT22;10036;47.812;9.274;2024-02-21T11:09:02;8.80;99.90
19755;DHT22;10036;47.812;9.274;2024-02-21T11:11:30;8.90;99.90
19755;DHT22;10036;47.812;9.274;2024-02-21T11:14:05;8.90;99.90
19755;DHT22;10036;47.812;9.274;2024-02-21T11:16:36;8.90;99.90
19755;DHT22;10036;47.812;9.274;2024-02-21T11:19:05;8.90;99.90
19755;DHT22;10036;47.812;9.274;2024-02-21T11:21:35;9.10;99.90
19755;DHT22;10036;47.812;9.274;2024-02-21T11:24:04;9.10;99.90
19755;DHT22;10036;47.812;9.274;2024-02-21T11:26:32;9.20;99.90
19755;DHT22;10036;47.812;9.274;2024-02-21T11:29:00;9.30;99.90
19755;DHT22;10036;47.812;9.274;2024-02-21T11:31:38;9.30;99.90
19755;DHT22;10036;47.812;9.274;2024-02-21T11:34:08;9.60;99.90
19755;DHT22;10036;47.812;9.274;2024-02-21T11:36:34;9.50;99.90
19755;DHT22;10036;47.812;9.274;2024-02-21T11:39:05;9.50;99.90
19755;DHT22;10036;47.812;9.274;2024-02-21T11:41:32;9.20;99.90
19755;DHT22;10036;47.812;9.274;2024-02-21T11:44:00;9.30;99.90
19755;DHT22;10036;47.812;9.274;2024-02-21T11:46:27;9.40;99.90
19755;DHT22;10036;47.812;9.274;2024-02-21T11:48:54;9.40;99.90
19755;DHT22;10036;47.812;9.274;2024-02-21T11:51:22;9.50;99.90
19755;DHT22;10036;47.812;9.274;2024-02-21T11:53:52;9.30;99.90
19755;DHT22;10036;47.812;9.274;2024-02-21T11:56:20;9.40;99.90
19755;DHT22;10036;47.812;9.274;2024-02-21T11:58:48;9.60;99.90
19755;DHT22;10036;47.812;9.274;2024-02-21T12:01:15;9.70;99.90
19755;DHT22;10036;47.812;9.274;2024-02-21T12:03:43;9.70;99.90
19755;DHT22;10036;47.812;9.274;2024-02-21T12:06:16;9.60;99.90
19755;DHT22;10036;47.812;9.274;2024-02-21T12:08:45;9.70;99.90
19755;DHT22;10036;47.812;9.274;2024-02-21T12:11:21;9.80;99.90
19755;DHT22;10036;47.812;9.274;2024-02-21T12:13:58;9.80;99.90
19755;DHT22;10036;47.812;9.274;2024-02-21T12:16:27;9.90;99.90
19755;DHT22;10036;47.812;9.274;2024-02-21T12:18:55;9.90;99.90
19755;DHT22;10036;47.812;9.274;2024-02-21T12:21:26;9.90;99.90
19755;DHT22;10036;47.812;9.274;2024-02-21T12:23:54;10.00;99.90
19755;DHT22;10036;47.812;9.274;2024-02-21T12:26:23;10.00;99.90
19755;DHT22;10036;47.812;9.274;2024-02-21T12:28:50;10.10;99.90
19755;DHT22;10036;47.812;9.274;2024-02-21T12:31:17;10.20;99.90
19755;DHT22;10036;47.812;9.274;2024-02-21T12:33:44;10.30;99.90
19755;DHT22;10036;47.812;9.274;2024-02-21T12:36:10;10.50;99.90
19755;DHT22;10036;47.812;9.274;2024-02-21T12:38:37;10.40;99.90
19755;DHT22;10036;47.812;9.274;2024-02-21T12:41:04;10.60;99.90
19755;DHT22;10036;47.812;9.274;2024-02-21T12:43:34;10.60;99.90
19755;DHT22;10036;47.812;9.274;2024-02-21T12:46:01;10.70;99.90
19755;DHT22;10036;47.812;9.274;2024-02-21T12:48:28;10.90;99.90
19755;DHT22;10036;47.812;9.274;2024-02-21T12:50:55;10.80;99.90
19755;DHT22;10036;47.812;9.274;2024-02-21T12:53:22;10.70;99.90
19755;DHT22;10036;47.812;9.274;2024-02-21T12:55:49;10.50;99.90
19755;DHT22;10036;47.812;9.274;2024-02-21T12:58:16;10.60;99.90
19755;DHT22;10036;47.812;9.274;2024-02-21T13:00:45;10.40;99.90
19755;DHT22;10036;47.812;9.274;2024-02-21T13:03:12;10.40;99.90
19755;DHT22;10036;47.812;9.274;2024-02-21T13:05:39;10.50;99.90
19755;DHT22;10036;47.812;9.274;2024-02-21T13:08:06;10.40;99.90
19755;DHT22;10036;47.812;9.274;2024-02-21T13:10:33;10.40;99.90
19755;DHT22;10036;47.812;9.274;2024-02-21T13:13:00;10.40;99.90
19755;DHT22;10036;47.812;9.274;2024-02-21T13:15:28;10.40;99.90
19755;DHT22;10036;47.812;9.274;2024-02-21T13:17:56;10.50;99.90
19755;DHT22;10036;47.812;9.274;2024-02-21T13:20:24;10.50;99.90
19755;DHT22;10036;47.812;9.274;2024-02-21T13:22:52;10.40;99.90
19755;DHT22;10036;47.812;9.274;2024-02-21T13:25:19;10.40;99.90
19755;DHT22;10036;47.812;9.274;2024-02-21T13:27:46;10.60;99.90
19755;DHT22;10036;47.812;9.274;2024-02-21T13:30:14;10.70;99.90
19755;DHT22;10036;47.812;9.274;2024-02-21T13:32:44;10.80;99.90
19755;DHT22;10036;47.812;9.274;2024-02-21T13:35:14;10.90;99.90
19755;DHT22;10036;47.812;9.274;2024-02-21T13:37:41;10.70;99.90
19755;DHT22;10036;47.812;9.274;2024-02-21T13:40:09;10.80;99.90
19755;DHT22;10036;47.812;9.274;2024-02-21T13:42:36;10.90;99.90
19755;DHT22;10036;47.812;9.274;2024-02-21T13:45:04;11.10;99.90
19755;DHT22;10036;47.812;9.274;2024-02-21T13:47:31;10.90;99.90
19755;DHT22;10036;47.812;9.274;2024-02-21T13:49:58;10.80;99.90
19755;DHT22;10036;47.812;9.274;2024-02-21T13:52:27;11.00;99.90
19755;DHT22;10036;47.812;9.274;2024-02-21T13:54:54;10.80;99.90
19755;DHT22;10036;47.812;9.274;2024-02-21T13:57:20;10.70;99.90
19755;DHT22;10036;47.812;9.274;2024-02-21T13:59:47;10.80;99.90
19755;DHT22;10036;47.812;9.274;2024-02-21T14:02:14;10.80;99.90
19755;DHT22;10036;47.812;9.274;2024-02-21T14:04:41;11.00;99.90
19755;DHT22;10036;47.812;9.274;2024-02-21T14:07:08;11.10;99.90
19755;DHT22;10036;47.812;9.274;2024-02-21T14:09:36;11.30;99.90
19755;DHT22;10036;47.812;9.274;2024-02-21T14:12:04;11.30;99.90
19755;DHT22;10036;47.812;9.274;2024-02-21T14:14:34;11.00;99.90
19755;DHT22;10036;47.812;9.274;2024-02-21T14:17:01;11.10;99.90
19755;DHT22;10036;47.812;9.274;2024-02-21T14:19:28;11.20;99.90
19755;DHT22;10036;47.812;9.274;2024-02-21T14:21:55;11.30;99.90
19755;DHT22;10036;47.812;9.274;2024-02-21T14:24:22;11.40;99.90
19755;DHT22;10036;47.812;9.274;2024-02-21T14:26:51;11.40;99.90
19755;DHT22;10036;47.812;9.274;2024-02-21T14:29:17;11.50;99.90
19755;DHT22;10036;47.812;9.274;2024-02-21T14:31:44;11.60;99.90
19755;DHT22;10036;47.812;9.274;2024-02-21T14:34:11;11.60;99.90
19755;DHT22;10036;47.812;9.274;2024-02-21T14:36:38;11.40;99.90
19755;DHT22;10036;47.812;9.274;2024-02-21T14:39:06;11.50;99.90
19755;DHT22;10036;47.812;9.274;2024-02-21T14:41:32;11.40;99.90
19755;DHT22;10036;47.812;9.274;2024-02-21T14:44:02;11.60;99.90
19755;DHT22;10036;47.812;9.274;2024-02-21T14:46:29;11.60;99.90
19755;DHT22;10036;47.812;9.274;2024-02-21T14:48:56;11.50;99.90
19755;DHT22;10036;47.812;9.274;2024-02-21T14:51:23;11.50;99.90
19755;DHT22;10036;47.812;9.274;2024-02-21T14:53:50;11.60;99.90
19755;DHT22;10036;47.812;9.274;2024-02-21T14:56:16;11.60;99.90
19755;DHT22;10036;47.812;9.274;2024-02-21T14:58:44;11.40;99.90
19755;DHT22;10036;47.812;9.274;2024-02-21T15:01:14;11.30;99.90
19755;DHT22;10036;47.812;9.274;2024-02-21T15:03:42;11.10;99.90
19755;DHT22;10036;47.812;9.274;2024-02-21T15:06:09;11.00;99.90
19755;DHT22;10036;47.812;9.274;2024-02-21T15:08:37;11.00;99.90
19755;DHT22;10036;47.812;9.274;2024-02-21T15:11:04;11.10;99.90
19755;DHT22;10036;47.812;9.274;2024-02-21T15:13:31;10.90;99.90
19755;DHT22;10036;47.812;9.274;2024-02-21T15:15:58;10.90;99.90
19755;DHT22;10036;47.812;9.274;2024-02-21T15:18:26;10.80;99.90
19755;DHT22;10036;47.812;9.274;2024-02-21T15:20:53;10.80;99.90
19755;DHT22;10036;47.812;9.274;2024-02-21T15:23:20;10.80;99.90
19755;DHT22;10036;47.812;9.274;2024-02-21T15:25:49;10.80;99.90
19755;DHT22;10036;47.812;9.274;2024-02-21T15:28:16;10.80;99.90
19755;DHT22;10036;47.812;9.274;2024-02-21T15:30:43;10.80;99.90
19755;DHT22;10036;47.812;9.274;2024-02-21T15:33:10;10.90;99.90
19755;DHT22;10036;47.812;9.274;2024-02-21T15:35:38;10.90;99.90
19755;DHT22;10036;47.812;9.274;2024-02-21T15:38:05;10.80;99.90
19755;DHT22;10036;47.812;9.274;2024-02-21T15:40:32;10.80;99.90
19755;DHT22;10036;47.812;9.274;2024-02-21T15:43:01;10.80;99.90
19755;DHT22;10036;47.812;9.274;2024-02-21T15:45:28;10.90;99.90